createdAt,value
2022-10-24T00:01:44.806Z,8.43
2022-10-24T00:04:13.228Z,8.50
2022-10-24T00:06:42.255Z,8.62
2022-10-24T00:09:10.906Z,8.77
2022-10-24T00:11:39.499Z,8.45
2022-10-24T00:14:07.975Z,8.36
2022-10-24T00:16:37.722Z,8.52
2022-10-24T00:19:06.542Z,8.42
2022-10-24T00:21:34.668Z,8.84
2022-10-24T00:24:03.026Z,8.79
2022-10-24T00:26:31.451Z,8.78
2022-10-24T00:31:33.801Z,8.26
2022-10-24T00:34:04.017Z,8.45
2022-10-24T00:36:32.786Z,8.49
2022-10-24T00:39:01.350Z,8.06
2022-10-24T00:41:35.300Z,8.37
2022-10-24T00:44:23.401Z,8.01
2022-10-24T00:46:55.563Z,8.06
2022-10-24T00:49:30.688Z,7.92
2022-10-24T00:52:04.273Z,7.98
2022-10-24T00:54:32.851Z,8.08
2022-10-24T00:57:07.417Z,8.20
2022-10-24T00:59:37.444Z,8.02
2022-10-24T01:02:06.059Z,8.17
2022-10-24T01:04:35.875Z,8.15
2022-10-24T01:07:17.093Z,7.90
2022-10-24T01:10:01.118Z,8.32
2022-10-24T01:12:41.032Z,8.13
2022-10-24T01:15:18.731Z,8.06
2022-10-24T01:17:55.958Z,8.22
2022-10-24T01:20:41.073Z,8.32
2022-10-24T01:23:35.911Z,8.85
2022-10-24T01:26:32.692Z,8.36
2022-10-24T01:29:10.456Z,8.49
2022-10-24T01:31:46.993Z,8.52
2022-10-24T01:34:27.631Z,8.18
2022-10-24T01:37:02.857Z,8.79
2022-10-24T01:39:38.506Z,8.65
2022-10-24T01:42:08.914Z,8.43
2022-10-24T01:44:41.553Z,8.50
2022-10-24T01:47:17.323Z,8.60
2022-10-24T01:49:51.572Z,8.15
2022-10-24T01:52:21.390Z,8.17
2022-10-24T01:54:50.489Z,8.33
2022-10-24T01:57:19.432Z,8.06
2022-10-24T01:59:50.878Z,8.38
2022-10-24T02:02:25.195Z,8.48
2022-10-24T02:04:59.590Z,7.70
2022-10-24T02:07:30.185Z,7.87
2022-10-24T02:10:04.344Z,7.92
2022-10-24T02:12:33.408Z,8.13
2022-10-24T02:15:26.175Z,8.14
2022-10-24T02:17:57.559Z,8.26
2022-10-24T02:20:29.988Z,8.66
2022-10-24T02:23:04.070Z,8.45
2022-10-24T02:25:36.293Z,8.92
2022-10-24T02:28:09.599Z,8.75
2022-10-24T02:30:43.881Z,8.20
2022-10-24T02:33:14.826Z,8.28
2022-10-24T02:35:44.451Z,8.33
2022-10-24T02:38:19.206Z,8.20
2022-10-24T02:40:50.033Z,8.16
2022-10-24T02:43:20.064Z,7.91
2022-10-24T02:45:54.343Z,8.11
2022-10-24T02:48:29.962Z,7.99
2022-10-24T02:50:58.393Z,8.02
2022-10-24T02:53:27.668Z,7.93
2022-10-24T02:55:58.523Z,7.48
2022-10-24T02:58:26.956Z,7.87
2022-10-24T03:00:55.311Z,8.05
2022-10-24T03:03:25.269Z,7.70
2022-10-24T03:05:53.724Z,7.59
2022-10-24T03:08:22.080Z,7.67
2022-10-24T03:10:50.478Z,7.56
2022-10-24T03:13:18.837Z,7.33
2022-10-24T03:18:20.709Z,7.41
2022-10-24T03:20:50.502Z,7.03
2022-10-24T03:23:19.495Z,7.78
2022-10-24T03:25:47.812Z,6.96
2022-10-24T03:28:16.269Z,7.39
2022-10-24T03:30:44.654Z,7.37
2022-10-24T03:33:13.045Z,7.30
2022-10-24T03:35:41.416Z,7.26
2022-10-24T03:38:11.235Z,7.36
2022-10-24T03:40:40.059Z,6.86
2022-10-24T03:43:08.305Z,7.01
2022-10-24T03:45:37.660Z,7.14
2022-10-24T03:48:07.959Z,7.40
2022-10-24T03:50:36.499Z,6.97
2022-10-24T03:53:05.506Z,7.05
2022-10-24T03:55:35.585Z,7.18
2022-10-24T03:58:04.130Z,7.20
2022-10-24T04:00:35.022Z,7.22
2022-10-24T04:03:03.440Z,7.20
2022-10-24T04:05:31.895Z,6.86
2022-10-24T04:08:00.301Z,6.72
2022-10-24T04:10:28.871Z,6.80
2022-10-24T04:12:58.648Z,7.00
2022-10-24T04:15:27.195Z,7.02
2022-10-24T04:17:55.682Z,7.27
2022-10-24T04:20:24.059Z,6.79
2022-10-24T04:22:52.428Z,6.81
2022-10-24T04:25:20.816Z,7.10
2022-10-24T04:27:49.257Z,6.76
2022-10-24T04:30:19.092Z,6.87
2022-10-24T04:32:47.797Z,7.07
2022-10-24T04:35:16.159Z,7.35
2022-10-24T04:37:44.520Z,6.93
2022-10-24T04:40:13.235Z,7.16
2022-10-24T04:42:42.196Z,7.37
2022-10-24T04:45:11.623Z,7.27
2022-10-24T04:47:41.609Z,7.06
2022-10-24T04:50:10.636Z,7.24
2022-10-24T04:52:38.743Z,7.40
2022-10-24T04:55:07.639Z,7.08
2022-10-24T04:57:36.056Z,7.56
2022-10-24T05:00:06.337Z,7.43
2022-10-24T05:02:34.722Z,7.28
2022-10-24T05:05:04.781Z,7.32
2022-10-24T05:07:33.339Z,7.38
2022-10-24T05:10:02.789Z,7.21
2022-10-24T05:12:33.730Z,7.26
2022-10-24T05:15:02.473Z,7.27
2022-10-24T05:17:32.610Z,7.29
2022-10-24T05:20:01.274Z,7.53
2022-10-24T05:22:31.112Z,7.29
2022-10-24T05:24:59.625Z,7.25
2022-10-24T05:27:28.036Z,7.29
2022-10-24T05:29:56.557Z,7.22
2022-10-24T05:32:25.496Z,7.43
2022-10-24T05:34:53.911Z,7.45
2022-10-24T05:37:22.421Z,7.79
2022-10-24T05:39:52.463Z,7.61
2022-10-24T05:42:20.991Z,7.69
2022-10-24T05:44:49.517Z,7.87
2022-10-24T05:47:17.956Z,7.61
2022-10-24T05:49:46.376Z,7.36
2022-10-24T05:52:14.797Z,7.62
2022-10-24T05:54:55.121Z,7.67
2022-10-24T05:57:33.209Z,7.90
2022-10-24T06:00:01.896Z,8.48
2022-10-24T06:02:40.293Z,8.19
2022-10-24T06:05:10.517Z,8.28
2022-10-24T06:07:39.139Z,8.13
2022-10-24T06:10:08.983Z,7.86
2022-10-24T06:12:39.140Z,8.20
2022-10-24T06:15:10.344Z,8.13
2022-10-24T06:17:38.872Z,7.96
2022-10-24T06:20:08.130Z,8.13
2022-10-24T06:22:36.657Z,8.11
2022-10-24T06:25:05.407Z,8.78
2022-10-24T06:27:33.612Z,8.34
2022-10-24T06:30:03.527Z,8.75
2022-10-24T06:32:32.124Z,8.28
2022-10-24T06:35:00.470Z,8.23
2022-10-24T06:37:30.329Z,8.75
2022-10-24T06:39:58.767Z,8.42
2022-10-24T06:42:27.237Z,8.43
2022-10-24T06:44:55.636Z,8.13
2022-10-24T06:47:25.436Z,8.73
2022-10-24T06:49:53.816Z,8.63
2022-10-24T06:52:22.150Z,8.92
2022-10-24T06:54:50.614Z,8.99
2022-10-24T06:57:19.057Z,8.95
2022-10-24T06:59:47.743Z,9.21
2022-10-24T07:02:17.646Z,9.02
2022-10-24T07:04:47.581Z,9.24
2022-10-24T07:07:17.288Z,9.35
2022-10-24T07:09:45.726Z,9.57
2022-10-24T07:12:14.156Z,9.35
2022-10-24T07:14:42.579Z,9.24
2022-10-24T07:17:10.970Z,9.02
2022-10-24T07:19:39.290Z,9.13
2022-10-24T07:22:12.196Z,9.44
2022-10-24T07:24:40.850Z,9.33
2022-10-24T07:27:09.237Z,8.87
2022-10-24T07:29:40.179Z,9.13
2022-10-24T07:32:08.630Z,9.13
2022-10-24T07:34:36.997Z,8.66
2022-10-24T07:37:05.855Z,8.80
2022-10-24T07:39:35.397Z,8.99
2022-10-24T07:42:03.859Z,9.42
2022-10-24T07:44:32.224Z,9.24
2022-10-24T07:47:01.225Z,9.36
2022-10-24T07:49:31.529Z,9.70
2022-10-24T07:52:02.120Z,9.30
2022-10-24T07:54:34.600Z,9.13
2022-10-24T07:57:07.125Z,9.15
2022-10-24T07:59:42.229Z,9.02
2022-10-24T08:02:12.259Z,9.40
2022-10-24T08:04:40.920Z,9.57
2022-10-24T08:07:13.680Z,9.44
2022-10-24T08:09:44.874Z,9.55
2022-10-24T08:12:14.833Z,9.72
2022-10-24T08:14:43.877Z,9.86
2022-10-24T08:17:12.571Z,9.86
2022-10-24T08:19:43.899Z,9.72
2022-10-24T08:22:13.198Z,9.89
2022-10-24T08:24:41.733Z,9.70
2022-10-24T08:27:10.174Z,9.65
2022-10-24T08:29:40.128Z,9.64
2022-10-24T08:32:08.696Z,9.91
2022-10-24T08:34:38.736Z,9.19
2022-10-24T08:37:07.273Z,10.14
2022-10-24T08:39:35.656Z,9.93
2022-10-24T08:42:06.876Z,10.18
2022-10-24T08:44:39.915Z,10.27
2022-10-24T08:47:19.554Z,10.36
2022-10-24T08:49:53.007Z,9.96
2022-10-24T08:52:28.836Z,9.44
2022-10-24T08:55:04.663Z,9.68
2022-10-24T08:57:35.773Z,9.73
2022-10-24T09:00:10.111Z,9.74
2022-10-24T09:02:44.368Z,9.74
2022-10-24T09:05:24.201Z,9.67
2022-10-24T09:07:58.184Z,9.79
2022-10-24T09:10:39.629Z,9.96
2022-10-24T09:13:15.303Z,10.27
2022-10-24T09:15:46.230Z,10.15
2022-10-24T09:18:21.367Z,10.20
2022-10-24T09:20:50.675Z,9.44
2022-10-24T09:23:22.159Z,9.37
2022-10-24T09:25:52.697Z,9.21
2022-10-24T09:28:21.978Z,9.16
2022-10-24T09:30:50.878Z,9.48
2022-10-24T09:33:31.505Z,9.73
2022-10-24T09:36:02.198Z,9.42
2022-10-24T09:38:33.903Z,9.68
2022-10-24T09:41:05.599Z,10.15
2022-10-24T09:43:47.115Z,9.05
2022-10-24T09:46:17.837Z,10.09
2022-10-24T09:48:52.724Z,10.55
2022-10-24T09:51:28.684Z,10.18
2022-10-24T09:54:04.280Z,9.53
2022-10-24T09:56:39.362Z,9.40
2022-10-24T09:59:39.190Z,9.30
2022-10-24T10:02:24.631Z,9.34
2022-10-24T10:05:19.485Z,9.19
2022-10-24T10:07:50.587Z,9.13
2022-10-24T10:10:29.098Z,9.13
2022-10-24T10:13:03.994Z,9.07
2022-10-24T10:15:35.976Z,8.90
2022-10-24T10:18:07.705Z,9.04
2022-10-24T10:20:41.946Z,8.43
2022-10-24T10:23:19.222Z,8.44
2022-10-24T10:25:47.768Z,8.36
2022-10-24T10:28:24.064Z,8.31
2022-10-24T10:30:56.432Z,8.79
2022-10-24T10:33:34.082Z,8.67
2022-10-24T10:36:09.848Z,8.58
2022-10-24T10:38:55.323Z,8.79
2022-10-24T10:41:38.952Z,8.47
2022-10-24T10:44:21.150Z,8.60
2022-10-24T10:47:02.855Z,8.41
2022-10-24T10:49:34.376Z,8.19
2022-10-24T10:52:08.386Z,8.14
2022-10-24T10:54:55.881Z,8.34
2022-10-24T10:57:31.052Z,7.94
2022-10-24T11:00:07.839Z,8.43
2022-10-24T11:03:02.525Z,8.11
2022-10-24T11:05:56.077Z,8.77
2022-10-24T11:09:06.662Z,8.93
2022-10-24T11:11:42.527Z,8.87
2022-10-24T11:14:23.824Z,9.42
2022-10-24T11:16:54.836Z,9.95
2022-10-24T11:19:29.670Z,9.56
2022-10-24T11:22:01.777Z,8.99
2022-10-24T11:24:36.585Z,9.06
2022-10-24T11:27:14.864Z,8.95
2022-10-24T11:29:50.093Z,8.95
2022-10-24T11:32:25.305Z,8.77
2022-10-24T11:34:59.729Z,8.78
2022-10-24T11:37:33.293Z,8.50
2022-10-24T11:40:06.308Z,8.32
2022-10-24T11:42:44.190Z,8.33
2022-10-24T11:45:15.661Z,8.45
2022-10-24T11:48:06.028Z,8.63
2022-10-24T11:50:40.321Z,8.62
2022-10-24T11:53:22.096Z,8.44
2022-10-24T11:55:56.293Z,8.50
2022-10-24T11:58:29.416Z,8.50
2022-10-24T12:01:21.590Z,8.47
2022-10-24T12:04:34.133Z,8.69
2022-10-24T12:07:35.449Z,9.02
2022-10-24T12:10:27.663Z,9.11
2022-10-24T12:13:25.025Z,9.29
2022-10-24T12:16:03.800Z,9.07
2022-10-24T12:18:34.474Z,8.67
2022-10-24T12:21:06.617Z,8.73
2022-10-24T12:23:36.014Z,8.82
2022-10-24T12:26:07.482Z,8.78
2022-10-24T12:28:36.900Z,8.83
2022-10-24T12:31:25.474Z,9.00
2022-10-24T12:34:34.536Z,8.55
2022-10-24T12:37:09.245Z,9.07
2022-10-24T12:39:41.476Z,8.79
2022-10-24T12:42:17.119Z,9.30
2022-10-24T12:44:48.074Z,9.08
2022-10-24T12:47:36.082Z,9.19
2022-10-24T12:50:49.855Z,9.11
2022-10-24T12:53:21.208Z,8.61
2022-10-24T12:56:16.310Z,9.06
2022-10-24T12:58:56.599Z,8.60
2022-10-24T13:01:29.840Z,8.32
2022-10-24T13:04:48.194Z,8.43
2022-10-24T13:07:31.375Z,8.39
2022-10-24T13:10:11.280Z,8.53
2022-10-24T13:12:55.940Z,8.49
2022-10-24T13:15:31.344Z,8.75
2022-10-24T13:18:16.025Z,8.51
2022-10-24T13:20:49.774Z,8.58
2022-10-24T13:23:25.060Z,8.73
2022-10-24T13:25:57.385Z,8.25
2022-10-24T13:28:44.332Z,8.31
2022-10-24T13:31:51.278Z,8.02
2022-10-24T13:34:23.407Z,8.06
2022-10-24T13:37:01.289Z,7.79
2022-10-24T13:39:37.531Z,8.21
2022-10-24T13:42:18.951Z,8.16
2022-10-24T13:44:48.860Z,8.04
2022-10-24T13:47:21.334Z,8.24
2022-10-24T13:49:55.117Z,8.06
2022-10-24T13:52:32.564Z,7.89
2022-10-24T13:55:06.442Z,7.82
2022-10-24T13:57:37.995Z,7.94
2022-10-24T14:00:09.718Z,7.84
2022-10-24T14:02:42.998Z,7.87
2022-10-24T14:05:24.165Z,7.98
2022-10-24T14:07:54.315Z,7.83
2022-10-24T14:10:23.172Z,7.70
2022-10-24T14:12:57.079Z,7.80
2022-10-24T14:15:28.915Z,7.84
2022-10-24T14:18:00.488Z,7.90
2022-10-24T14:20:31.906Z,7.78
2022-10-24T14:23:02.351Z,7.92
2022-10-24T14:25:36.375Z,7.84
2022-10-24T14:28:12.479Z,7.92
2022-10-24T14:30:41.141Z,7.81
2022-10-24T14:33:22.724Z,7.61
2022-10-24T14:35:55.166Z,7.60
2022-10-24T14:38:28.977Z,7.54
2022-10-24T14:41:08.462Z,7.67
2022-10-24T14:43:42.139Z,7.63
2022-10-24T14:46:34.387Z,7.54
2022-10-24T14:49:20.926Z,7.70
2022-10-24T14:54:23.590Z,7.53
2022-10-24T14:56:56.464Z,7.46
2022-10-24T14:59:35.751Z,7.50
2022-10-24T15:02:07.837Z,7.51
2022-10-24T15:04:41.241Z,7.47
2022-10-24T15:07:28.206Z,7.43
2022-10-24T15:10:01.518Z,7.50
2022-10-24T15:12:35.392Z,7.60
2022-10-24T15:15:22.701Z,7.72
2022-10-24T15:17:52.496Z,7.63
2022-10-24T15:20:23.438Z,7.54
2022-10-24T15:22:55.269Z,7.72
2022-10-24T15:25:29.658Z,7.93
2022-10-24T15:28:00.554Z,7.90
2022-10-24T15:30:31.529Z,7.75
2022-10-24T15:33:03.282Z,7.68
2022-10-24T15:35:34.820Z,7.76
2022-10-24T15:38:12.082Z,7.20
2022-10-24T15:40:44.475Z,7.08
2022-10-24T15:43:13.533Z,7.34
2022-10-24T15:45:42.004Z,6.61
2022-10-24T15:48:11.066Z,6.62
2022-10-24T15:50:45.394Z,6.74
2022-10-24T15:53:20.109Z,6.40
2022-10-24T15:55:50.024Z,6.22
2022-10-24T15:58:19.291Z,6.23
2022-10-24T16:00:47.906Z,6.34
2022-10-24T16:03:21.227Z,5.95
2022-10-24T16:05:53.518Z,6.09
2022-10-24T16:08:23.525Z,5.98
2022-10-24T16:10:54.451Z,5.85
2022-10-24T16:13:24.296Z,6.15
2022-10-24T16:15:53.110Z,6.32
2022-10-24T16:18:21.600Z,6.20
2022-10-24T16:20:50.168Z,6.03
2022-10-24T16:23:59.876Z,5.48
2022-10-24T16:26:29.765Z,5.65
2022-10-24T16:28:58.390Z,4.83
2022-10-24T16:31:27.007Z,4.78
2022-10-24T16:33:55.650Z,4.63
2022-10-24T16:36:25.027Z,5.10
2022-10-24T16:38:54.050Z,5.23
2022-10-24T16:41:22.994Z,5.54
2022-10-24T16:43:56.168Z,5.64
2022-10-24T16:46:26.510Z,6.22
2022-10-24T16:48:55.732Z,6.21
2022-10-24T16:51:27.618Z,6.20
2022-10-24T16:53:56.213Z,6.33
2022-10-24T16:56:24.853Z,6.29
2022-10-24T16:58:54.742Z,6.24
2022-10-24T17:01:23.597Z,6.38
2022-10-24T17:03:51.839Z,6.62
2022-10-24T17:06:21.048Z,6.36
2022-10-24T17:08:49.667Z,6.14
2022-10-24T17:11:43.678Z,6.15
2022-10-24T17:14:09.924Z,6.00
2022-10-24T17:16:38.593Z,5.99
2022-10-24T17:19:15.744Z,5.97
2022-10-24T17:21:46.991Z,5.95
2022-10-24T17:24:18.490Z,5.83
2022-10-24T17:26:47.714Z,5.87
2022-10-24T17:29:25.823Z,5.84
2022-10-24T17:31:57.443Z,6.03
2022-10-24T17:34:26.638Z,6.05
2022-10-24T17:37:04.064Z,5.91
2022-10-24T17:39:35.548Z,5.98
2022-10-24T17:42:04.302Z,5.92
2022-10-24T17:44:34.701Z,5.87
2022-10-24T17:47:03.576Z,5.78
2022-10-24T17:49:31.751Z,6.02
2022-10-24T17:52:00.239Z,5.77
2022-10-24T17:54:28.854Z,5.78
2022-10-24T17:56:57.262Z,5.41
2022-10-24T17:59:25.994Z,5.66
2022-10-24T18:01:55.847Z,5.57
2022-10-24T18:04:24.612Z,5.47
2022-10-24T18:06:53.033Z,5.75
2022-10-24T18:09:21.733Z,5.61
2022-10-24T18:11:50.096Z,5.75
2022-10-24T18:14:18.740Z,5.51
2022-10-24T18:16:47.571Z,5.62
2022-10-24T18:19:17.793Z,5.45
2022-10-24T18:21:46.662Z,5.60
2022-10-24T18:24:15.268Z,5.45
2022-10-24T18:26:44.448Z,5.56
2022-10-24T18:29:12.992Z,5.43
2022-10-24T18:31:41.622Z,5.23
2022-10-24T18:34:11.488Z,5.29
2022-10-24T18:36:41.440Z,5.18
2022-10-24T18:39:10.059Z,5.19
2022-10-24T18:41:48.565Z,5.09
2022-10-24T18:44:24.745Z,5.00
2022-10-24T18:46:55.386Z,5.04
2022-10-24T18:49:25.293Z,5.00
2022-10-24T18:52:08.405Z,5.00
2022-10-24T18:54:38.849Z,4.97
2022-10-24T18:57:23.190Z,5.04
2022-10-24T18:59:52.295Z,5.09
2022-10-24T19:02:29.093Z,5.10
2022-10-24T19:05:14.036Z,5.34
2022-10-24T19:07:44.561Z,5.29
2022-10-24T19:10:18.106Z,5.10
2022-10-24T19:12:47.129Z,4.99
2022-10-24T19:15:16.930Z,4.87
2022-10-24T19:17:45.864Z,4.91
2022-10-24T19:20:20.247Z,5.07
2022-10-24T19:22:50.259Z,4.92
2022-10-24T19:25:19.128Z,4.91
2022-10-24T19:27:49.459Z,4.82
2022-10-24T19:30:18.136Z,4.84
2022-10-24T19:32:46.785Z,5.09
2022-10-24T19:35:16.332Z,4.78
2022-10-24T19:37:45.607Z,4.57
2022-10-24T19:40:16.079Z,4.37
2022-10-24T19:42:44.514Z,4.49
2022-10-24T19:45:12.861Z,4.52
2022-10-24T19:47:41.252Z,4.35
2022-10-24T19:50:12.431Z,4.40
2022-10-24T19:52:41.453Z,4.39
2022-10-24T19:55:09.903Z,4.37
2022-10-24T19:57:39.698Z,4.23
2022-10-24T20:00:09.597Z,4.31
2022-10-24T20:02:41.786Z,4.25
2022-10-24T20:05:10.757Z,4.24
2022-10-24T20:07:39.178Z,4.11
2022-10-24T20:10:08.496Z,4.00
2022-10-24T20:12:36.917Z,3.89
2022-10-24T20:15:07.683Z,3.78
2022-10-24T20:17:36.492Z,3.79
2022-10-24T20:20:05.315Z,3.70
2022-10-24T20:22:33.855Z,3.66
2022-10-24T20:25:02.339Z,3.71
2022-10-24T20:27:31.750Z,3.62
2022-10-24T20:30:00.178Z,3.74
2022-10-24T20:32:29.908Z,3.71
2022-10-24T20:34:58.244Z,3.70
2022-10-24T20:37:26.632Z,3.83
2022-10-24T20:39:55.020Z,3.75
2022-10-24T20:42:23.461Z,3.76
2022-10-24T20:44:51.840Z,3.75
2022-10-24T20:47:20.270Z,3.81
2022-10-24T20:49:50.055Z,3.89
2022-10-24T20:52:18.518Z,3.95
2022-10-24T20:54:46.860Z,4.02
2022-10-24T20:57:15.785Z,3.86
2022-10-24T20:59:46.508Z,3.76
2022-10-24T21:02:15.111Z,3.66
2022-10-24T21:04:43.294Z,3.56
2022-10-24T21:07:13.435Z,3.51
2022-10-24T21:09:41.817Z,3.50
2022-10-24T21:12:10.164Z,3.44
2022-10-24T21:14:38.573Z,3.39
2022-10-24T21:17:06.976Z,3.43
2022-10-24T21:19:35.313Z,3.47
2022-10-24T21:22:03.694Z,3.59
2022-10-24T21:24:33.507Z,3.62
2022-10-24T21:27:03.049Z,3.65
2022-10-24T21:29:33.910Z,3.68
2022-10-24T21:32:03.113Z,3.76
2022-10-24T21:34:34.278Z,3.76
2022-10-24T21:37:04.340Z,3.77
2022-10-24T21:39:34.192Z,3.65
2022-10-24T21:42:02.735Z,3.71
2022-10-24T21:44:31.125Z,3.82
2022-10-24T21:46:59.528Z,3.68
2022-10-24T21:49:28.006Z,3.71
2022-10-24T21:51:56.445Z,3.59
2022-10-24T21:54:26.423Z,3.55
2022-10-24T21:56:56.218Z,3.46
2022-10-24T21:59:24.846Z,3.43
2022-10-24T22:01:53.804Z,3.41
2022-10-24T22:04:22.623Z,3.39
2022-10-24T22:06:50.831Z,3.46
2022-10-24T22:09:21.167Z,3.63
2022-10-24T22:11:49.693Z,3.74
2022-10-24T22:14:19.760Z,3.73
2022-10-24T22:16:48.913Z,3.78
2022-10-24T22:19:17.864Z,3.79
2022-10-24T22:21:47.907Z,3.68
2022-10-24T22:24:18.497Z,3.79
2022-10-24T22:26:47.014Z,3.54
2022-10-24T22:29:17.583Z,3.37
2022-10-24T22:31:48.930Z,3.52
2022-10-24T22:34:19.515Z,3.56
2022-10-24T22:37:09.033Z,3.49
2022-10-24T22:39:38.059Z,3.74
2022-10-24T22:42:07.780Z,3.53
2022-10-24T22:44:36.972Z,3.39
2022-10-24T22:47:24.850Z,3.58
2022-10-24T22:50:04.192Z,3.25
2022-10-24T22:52:32.972Z,3.43
2022-10-24T22:55:03.897Z,3.30
2022-10-24T23:00:08.214Z,2.58
2022-10-24T23:02:45.642Z,2.49
2022-10-24T23:05:27.456Z,1.88
2022-10-24T23:08:02.666Z,2.64
2022-10-24T23:10:31.187Z,2.65
2022-10-24T23:13:00.400Z,2.20
2022-10-24T23:15:29.528Z,2.45
2022-10-24T23:17:59.818Z,2.38
2022-10-24T23:20:34.718Z,2.73
2022-10-24T23:23:17.061Z,2.68
2022-10-24T23:26:03.335Z,2.20
2022-10-24T23:28:40.689Z,2.66
2022-10-24T23:31:09.790Z,2.32
2022-10-24T23:33:39.903Z,2.34
2022-10-24T23:36:17.184Z,2.64
2022-10-24T23:38:46.130Z,3.11
2022-10-24T23:41:15.182Z,3.15
2022-10-24T23:43:43.943Z,3.21
2022-10-24T23:46:22.261Z,3.17
2022-10-24T23:49:02.194Z,3.49
2022-10-24T23:51:35.469Z,3.62
2022-10-24T23:54:09.062Z,3.57
2022-10-24T23:56:38.523Z,3.07
2022-10-24T23:59:07.170Z,3.33
